sensor_id;sensor_type;location;lat;lon;timestamp;temperature;humidity
78876;DHT22;68253;52.506;5.486;2023-03-21T00:00:39;19.90;58.70
78876;DHT22;68253;52.506;5.486;2023-03-21T00:03:06;19.90;58.70
78876;DHT22;68253;52.506;5.486;2023-03-21T00:05:32;19.80;58.70
78876;DHT22;68253;52.506;5.486;2023-03-21T00:07:58;19.80;58.70
78876;DHT22;68253;52.506;5.486;2023-03-21T00:10:24;19.80;58.70
78876;DHT22;68253;52.506;5.486;2023-03-21T00:12:50;19.80;58.70
78876;DHT22;68253;52.506;5.486;2023-03-21T00:15:25;19.70;58.70
78876;DHT22;68253;52.506;5.486;2023-03-21T00:17:56;19.70;58.70
78876;DHT22;68253;52.506;5.486;2023-03-21T00:20:30;19.70;58.70
78876;DHT22;68253;52.506;5.486;2023-03-21T00:23:00;19.70;58.70
78876;DHT22;68253;52.506;5.486;2023-03-21T00:25:27;19.70;58.70
78876;DHT22;68253;52.506;5.486;2023-03-21T00:27:53;19.70;58.70
78876;DHT22;68253;52.506;5.486;2023-03-21T00:30:21;19.70;58.70
78876;DHT22;68253;52.506;5.486;2023-03-21T00:32:49;19.70;58.70
78876;DHT22;68253;52.506;5.486;2023-03-21T00:35:15;19.70;58.70
78876;DHT22;68253;52.506;5.486;2023-03-21T00:37:41;19.70;58.70
78876;DHT22;68253;52.506;5.486;2023-03-21T00:40:10;19.60;58.70
78876;DHT22;68253;52.506;5.486;2023-03-21T00:42:37;19.60;58.70
78876;DHT22;68253;52.506;5.486;2023-03-21T00:45:04;19.60;58.70
78876;DHT22;68253;52.506;5.486;2023-03-21T00:47:32;19.60;58.70
78876;DHT22;68253;52.506;5.486;2023-03-21T00:49:58;19.50;58.70
78876;DHT22;68253;52.506;5.486;2023-03-21T00:52:24;19.50;58.70
78876;DHT22;68253;52.506;5.486;2023-03-21T00:54:51;19.50;58.70
78876;DHT22;68253;52.506;5.486;2023-03-21T00:57:17;19.50;58.70
78876;DHT22;68253;52.506;5.486;2023-03-21T00:59:43;19.50;58.70
78876;DHT22;68253;52.506;5.486;2023-03-21T01:02:09;19.50;58.70
78876;DHT22;68253;52.506;5.486;2023-03-21T01:04:39;19.50;58.70
78876;DHT22;68253;52.506;5.486;2023-03-21T01:07:05;19.40;58.80
78876;DHT22;68253;52.506;5.486;2023-03-21T01:09:32;19.40;58.70
78876;DHT22;68253;52.506;5.486;2023-03-21T01:11:58;19.40;58.70
78876;DHT22;68253;52.506;5.486;2023-03-21T01:14:24;19.40;58.70
78876;DHT22;68253;52.506;5.486;2023-03-21T01:16:53;19.40;58.70
78876;DHT22;68253;52.506;5.486;2023-03-21T01:19:21;19.30;58.80
78876;DHT22;68253;52.506;5.486;2023-03-21T01:21:50;19.30;58.80
78876;DHT22;68253;52.506;5.486;2023-03-21T01:24:16;19.30;58.80
78876;DHT22;68253;52.506;5.486;2023-03-21T01:26:42;19.30;58.80
78876;DHT22;68253;52.506;5.486;2023-03-21T01:29:08;19.30;58.80
78876;DHT22;68253;52.506;5.486;2023-03-21T01:31:35;19.30;58.80
78876;DHT22;68253;52.506;5.486;2023-03-21T01:34:01;19.20;58.80
78876;DHT22;68253;52.506;5.486;2023-03-21T01:36:28;19.20;58.90
78876;DHT22;68253;52.506;5.486;2023-03-21T01:39:02;19.20;58.80
78876;DHT22;68253;52.506;5.486;2023-03-21T01:41:31;19.20;58.90
78876;DHT22;68253;52.506;5.486;2023-03-21T01:43:58;19.20;58.80
78876;DHT22;68253;52.506;5.486;2023-03-21T01:46:43;19.20;58.90
78876;DHT22;68253;52.506;5.486;2023-03-21T01:49:42;19.20;58.80
78876;DHT22;68253;52.506;5.486;2023-03-21T01:52:31;19.10;58.90
78876;DHT22;68253;52.506;5.486;2023-03-21T01:54:58;19.10;58.90
78876;DHT22;68253;52.506;5.486;2023-03-21T01:57:32;19.10;58.90
78876;DHT22;68253;52.506;5.486;2023-03-21T02:00:03;19.10;58.90
78876;DHT22;68253;52.506;5.486;2023-03-21T02:02:47;19.10;58.90
78876;DHT22;68253;52.506;5.486;2023-03-21T02:06:01;19.00;58.90
78876;DHT22;68253;52.506;5.486;2023-03-21T02:08:34;19.00;58.90
78876;DHT22;68253;52.506;5.486;2023-03-21T02:11:07;19.00;58.90
78876;DHT22;68253;52.506;5.486;2023-03-21T02:13:40;19.00;58.90
78876;DHT22;68253;52.506;5.486;2023-03-21T02:19:24;19.00;58.90
78876;DHT22;68253;52.506;5.486;2023-03-21T02:25:18;19.00;58.90
78876;DHT22;68253;52.506;5.486;2023-03-21T02:28:03;19.00;58.90
78876;DHT22;68253;52.506;5.486;2023-03-21T02:33:44;18.90;58.90
78876;DHT22;68253;52.506;5.486;2023-03-21T02:39:10;18.90;58.90
78876;DHT22;68253;52.506;5.486;2023-03-21T02:41:51;18.90;58.90
78876;DHT22;68253;52.506;5.486;2023-03-21T02:47:43;18.90;58.90
78876;DHT22;68253;52.506;5.486;2023-03-21T02:50:45;18.90;58.90
78876;DHT22;68253;52.506;5.486;2023-03-21T02:53:16;18.90;58.90
78876;DHT22;68253;52.506;5.486;2023-03-21T02:55:45;18.80;58.90
78876;DHT22;68253;52.506;5.486;2023-03-21T02:58:20;18.80;58.90
78876;DHT22;68253;52.506;5.486;2023-03-21T03:00:52;18.80;58.90
78876;DHT22;68253;52.506;5.486;2023-03-21T03:03:34;18.80;58.90
78876;DHT22;68253;52.506;5.486;2023-03-21T03:06:14;18.80;58.90
78876;DHT22;68253;52.506;5.486;2023-03-21T03:09:07;18.80;58.90
78876;DHT22;68253;52.506;5.486;2023-03-21T03:11:45;18.80;58.90
78876;DHT22;68253;52.506;5.486;2023-03-21T03:14:43;18.80;58.80
78876;DHT22;68253;52.506;5.486;2023-03-21T03:17:45;18.80;58.90
78876;DHT22;68253;52.506;5.486;2023-03-21T03:26:10;18.70;58.90
78876;DHT22;68253;52.506;5.486;2023-03-21T03:28:41;18.70;58.90
78876;DHT22;68253;52.506;5.486;2023-03-21T03:31:20;18.70;58.90
78876;DHT22;68253;52.506;5.486;2023-03-21T03:33:55;18.70;58.90
78876;DHT22;68253;52.506;5.486;2023-03-21T03:36:27;18.70;58.90
78876;DHT22;68253;52.506;5.486;2023-03-21T03:38:56;18.70;58.90
78876;DHT22;68253;52.506;5.486;2023-03-21T03:41:25;18.70;58.90
78876;DHT22;68253;52.506;5.486;2023-03-21T03:43:58;18.70;58.90
78876;DHT22;68253;52.506;5.486;2023-03-21T03:47:04;18.70;58.90
78876;DHT22;68253;52.506;5.486;2023-03-21T03:49:42;18.70;58.80
78876;DHT22;68253;52.506;5.486;2023-03-21T03:52:21;18.70;58.90
78876;DHT22;68253;52.506;5.486;2023-03-21T03:54:54;18.70;58.90
78876;DHT22;68253;52.506;5.486;2023-03-21T03:57:24;18.70;58.90
78876;DHT22;68253;52.506;5.486;2023-03-21T03:59:51;18.70;58.90
78876;DHT22;68253;52.506;5.486;2023-03-21T04:02:43;18.70;58.90
78876;DHT22;68253;52.506;5.486;2023-03-21T04:05:10;18.60;58.90
78876;DHT22;68253;52.506;5.486;2023-03-21T04:07:37;18.70;58.90
78876;DHT22;68253;52.506;5.486;2023-03-21T04:10:04;18.60;58.90
78876;DHT22;68253;52.506;5.486;2023-03-21T04:12:37;18.70;58.90
78876;DHT22;68253;52.506;5.486;2023-03-21T04:15:13;18.60;58.90
78876;DHT22;68253;52.506;5.486;2023-03-21T04:17:44;18.60;58.90
78876;DHT22;68253;52.506;5.486;2023-03-21T04:20:12;18.60;58.90
78876;DHT22;68253;52.506;5.486;2023-03-21T04:22:38;18.60;58.90
78876;DHT22;68253;52.506;5.486;2023-03-21T04:25:06;18.60;58.90
78876;DHT22;68253;52.506;5.486;2023-03-21T04:27:34;18.60;58.90
78876;DHT22;68253;52.506;5.486;2023-03-21T04:30:18;18.60;58.90
78876;DHT22;68253;52.506;5.486;2023-03-21T04:33:02;18.60;58.90
78876;DHT22;68253;52.506;5.486;2023-03-21T04:35:31;18.60;58.90
78876;DHT22;68253;52.506;5.486;2023-03-21T04:38:01;18.60;58.90
78876;DHT22;68253;52.506;5.486;2023-03-21T04:40:27;18.60;58.90
78876;DHT22;68253;52.506;5.486;2023-03-21T04:42:54;18.60;58.90
78876;DHT22;68253;52.506;5.486;2023-03-21T04:45:21;18.60;58.90
78876;DHT22;68253;52.506;5.486;2023-03-21T04:47:47;18.60;58.90
78876;DHT22;68253;52.506;5.486;2023-03-21T04:50:14;18.60;58.90
78876;DHT22;68253;52.506;5.486;2023-03-21T04:52:41;18.60;58.90
78876;DHT22;68253;52.506;5.486;2023-03-21T04:55:08;18.60;58.90
78876;DHT22;68253;52.506;5.486;2023-03-21T04:57:36;18.60;58.90
78876;DHT22;68253;52.506;5.486;2023-03-21T05:00:05;18.60;58.90
78876;DHT22;68253;52.506;5.486;2023-03-21T05:02:34;18.60;58.90
78876;DHT22;68253;52.506;5.486;2023-03-21T05:05:01;18.60;58.90
78876;DHT22;68253;52.506;5.486;2023-03-21T05:07:27;18.60;58.90
78876;DHT22;68253;52.506;5.486;2023-03-21T05:09:54;18.60;58.90
78876;DHT22;68253;52.506;5.486;2023-03-21T05:12:20;18.50;58.90
78876;DHT22;68253;52.506;5.486;2023-03-21T05:14:46;18.60;58.80
78876;DHT22;68253;52.506;5.486;2023-03-21T05:17:14;18.60;58.90
78876;DHT22;68253;52.506;5.486;2023-03-21T05:19:50;18.50;58.80
78876;DHT22;68253;52.506;5.486;2023-03-21T05:22:18;18.50;58.90
78876;DHT22;68253;52.506;5.486;2023-03-21T05:24:45;18.50;58.90
78876;DHT22;68253;52.506;5.486;2023-03-21T05:27:27;18.50;58.90
78876;DHT22;68253;52.506;5.486;2023-03-21T05:30:04;18.50;58.80
78876;DHT22;68253;52.506;5.486;2023-03-21T05:32:33;18.50;58.90
78876;DHT22;68253;52.506;5.486;2023-03-21T05:35:00;18.50;58.80
78876;DHT22;68253;52.506;5.486;2023-03-21T05:37:27;18.50;58.90
78876;DHT22;68253;52.506;5.486;2023-03-21T05:39:54;18.50;58.90
78876;DHT22;68253;52.506;5.486;2023-03-21T05:42:27;18.50;58.90
78876;DHT22;68253;52.506;5.486;2023-03-21T05:44:54;18.50;58.90
78876;DHT22;68253;52.506;5.486;2023-03-21T05:47:26;18.50;58.80
78876;DHT22;68253;52.506;5.486;2023-03-21T05:49:55;18.50;58.90
78876;DHT22;68253;52.506;5.486;2023-03-21T05:52:22;18.50;58.90
78876;DHT22;68253;52.506;5.486;2023-03-21T05:54:48;18.50;58.80
78876;DHT22;68253;52.506;5.486;2023-03-21T05:57:15;18.50;58.90
78876;DHT22;68253;52.506;5.486;2023-03-21T06:00:05;18.50;58.80
78876;DHT22;68253;52.506;5.486;2023-03-21T06:02:41;18.50;58.90
78876;DHT22;68253;52.506;5.486;2023-03-21T06:05:20;18.40;58.90
78876;DHT22;68253;52.506;5.486;2023-03-21T06:07:46;18.40;58.90
78876;DHT22;68253;52.506;5.486;2023-03-21T06:10:12;18.50;58.90
78876;DHT22;68253;52.506;5.486;2023-03-21T06:12:42;18.40;58.90
78876;DHT22;68253;52.506;5.486;2023-03-21T06:15:24;18.40;58.90
78876;DHT22;68253;52.506;5.486;2023-03-21T06:18:06;18.40;58.90
78876;DHT22;68253;52.506;5.486;2023-03-21T06:20:33;18.40;58.90
78876;DHT22;68253;52.506;5.486;2023-03-21T06:23:06;18.40;58.90
78876;DHT22;68253;52.506;5.486;2023-03-21T06:25:33;18.40;58.90
78876;DHT22;68253;52.506;5.486;2023-03-21T06:27:59;18.40;58.90
78876;DHT22;68253;52.506;5.486;2023-03-21T06:30:26;18.40;58.80
78876;DHT22;68253;52.506;5.486;2023-03-21T06:33:03;18.40;58.80
78876;DHT22;68253;52.506;5.486;2023-03-21T06:35:29;18.40;58.90
78876;DHT22;68253;52.506;5.486;2023-03-21T06:37:55;18.40;58.90
78876;DHT22;68253;52.506;5.486;2023-03-21T06:40:24;18.40;58.90
78876;DHT22;68253;52.506;5.486;2023-03-21T06:42:52;18.40;58.80
78876;DHT22;68253;52.506;5.486;2023-03-21T06:45:18;18.40;58.80
78876;DHT22;68253;52.506;5.486;2023-03-21T06:47:44;18.40;58.80
78876;DHT22;68253;52.506;5.486;2023-03-21T06:50:23;18.40;58.80
78876;DHT22;68253;52.506;5.486;2023-03-21T06:52:49;18.40;58.90
78876;DHT22;68253;52.506;5.486;2023-03-21T06:55:16;18.40;58.80
78876;DHT22;68253;52.506;5.486;2023-03-21T06:57:44;18.40;58.80
78876;DHT22;68253;52.506;5.486;2023-03-21T07:00:12;18.40;58.80
78876;DHT22;68253;52.506;5.486;2023-03-21T07:02:42;18.40;58.80
78876;DHT22;68253;52.506;5.486;2023-03-21T07:05:14;18.40;58.90
78876;DHT22;68253;52.506;5.486;2023-03-21T07:07:41;18.40;58.80
78876;DHT22;68253;52.506;5.486;2023-03-21T07:10:08;18.40;58.80
78876;DHT22;68253;52.506;5.486;2023-03-21T07:12:43;18.40;58.80
78876;DHT22;68253;52.506;5.486;2023-03-21T07:15:32;18.40;58.80
78876;DHT22;68253;52.506;5.486;2023-03-21T07:18:00;18.40;58.80
78876;DHT22;68253;52.506;5.486;2023-03-21T07:20:26;18.30;58.80
78876;DHT22;68253;52.506;5.486;2023-03-21T07:22:52;18.30;58.80
78876;DHT22;68253;52.506;5.486;2023-03-21T07:25:18;18.40;58.80
78876;DHT22;68253;52.506;5.486;2023-03-21T07:27:45;18.30;58.80
78876;DHT22;68253;52.506;5.486;2023-03-21T07:30:12;18.40;58.80
78876;DHT22;68253;52.506;5.486;2023-03-21T07:32:38;18.40;58.80
78876;DHT22;68253;52.506;5.486;2023-03-21T07:35:06;18.40;58.80
78876;DHT22;68253;52.506;5.486;2023-03-21T07:37:32;18.40;58.80
78876;DHT22;68253;52.506;5.486;2023-03-21T07:39:58;18.40;58.80
78876;DHT22;68253;52.506;5.486;2023-03-21T07:42:25;18.40;58.80
78876;DHT22;68253;52.506;5.486;2023-03-21T07:44:58;18.40;58.80
78876;DHT22;68253;52.506;5.486;2023-03-21T07:47:24;18.40;58.80
78876;DHT22;68253;52.506;5.486;2023-03-21T07:49:50;18.40;58.70
78876;DHT22;68253;52.506;5.486;2023-03-21T07:52:16;18.30;58.80
78876;DHT22;68253;52.506;5.486;2023-03-21T07:54:42;18.30;58.70
78876;DHT22;68253;52.506;5.486;2023-03-21T07:57:08;18.30;58.80
78876;DHT22;68253;52.506;5.486;2023-03-21T07:59:34;18.40;58.70
78876;DHT22;68253;52.506;5.486;2023-03-21T08:02:01;18.40;58.80
78876;DHT22;68253;52.506;5.486;2023-03-21T08:04:27;18.40;58.70
78876;DHT22;68253;52.506;5.486;2023-03-21T08:06:53;18.30;58.70
78876;DHT22;68253;52.506;5.486;2023-03-21T08:09:19;18.30;58.70
78876;DHT22;68253;52.506;5.486;2023-03-21T08:11:45;18.30;58.80
78876;DHT22;68253;52.506;5.486;2023-03-21T08:14:11;18.30;58.70
78876;DHT22;68253;52.506;5.486;2023-03-21T08:16:37;18.30;58.70
78876;DHT22;68253;52.506;5.486;2023-03-21T08:19:04;18.30;58.70
78876;DHT22;68253;52.506;5.486;2023-03-21T08:21:30;18.30;58.70
78876;DHT22;68253;52.506;5.486;2023-03-21T08:23:56;18.30;58.70
78876;DHT22;68253;52.506;5.486;2023-03-21T08:26:22;18.30;58.70
78876;DHT22;68253;52.506;5.486;2023-03-21T08:28:51;18.30;58.70
78876;DHT22;68253;52.506;5.486;2023-03-21T08:31:17;18.30;58.70
78876;DHT22;68253;52.506;5.486;2023-03-21T08:33:45;18.30;58.70
78876;DHT22;68253;52.506;5.486;2023-03-21T08:36:12;18.30;58.70
78876;DHT22;68253;52.506;5.486;2023-03-21T08:38:38;18.30;58.70
78876;DHT22;68253;52.506;5.486;2023-03-21T08:41:04;18.30;58.70
78876;DHT22;68253;52.506;5.486;2023-03-21T08:43:31;18.30;58.70
78876;DHT22;68253;52.506;5.486;2023-03-21T08:45:57;18.30;58.70
78876;DHT22;68253;52.506;5.486;2023-03-21T08:48:23;18.30;58.70
78876;DHT22;68253;52.506;5.486;2023-03-21T08:50:50;18.30;58.70
78876;DHT22;68253;52.506;5.486;2023-03-21T08:53:16;18.30;58.70
78876;DHT22;68253;52.506;5.486;2023-03-21T08:55:43;18.40;58.70
78876;DHT22;68253;52.506;5.486;2023-03-21T08:58:09;18.30;58.70
78876;DHT22;68253;52.506;5.486;2023-03-21T09:00:36;18.30;58.70
78876;DHT22;68253;52.506;5.486;2023-03-21T09:03:02;18.40;58.70
78876;DHT22;68253;52.506;5.486;2023-03-21T09:05:29;18.40;58.70
78876;DHT22;68253;52.506;5.486;2023-03-21T09:07:55;18.40;58.70
78876;DHT22;68253;52.506;5.486;2023-03-21T09:10:22;18.30;58.70
78876;DHT22;68253;52.506;5.486;2023-03-21T09:12:50;18.30;58.70
78876;DHT22;68253;52.506;5.486;2023-03-21T09:15:17;18.40;58.70
78876;DHT22;68253;52.506;5.486;2023-03-21T09:17:45;18.30;58.70
78876;DHT22;68253;52.506;5.486;2023-03-21T09:20:18;18.30;58.70
78876;DHT22;68253;52.506;5.486;2023-03-21T09:22:46;18.40;58.70
78876;DHT22;68253;52.506;5.486;2023-03-21T09:25:16;18.40;58.70
78876;DHT22;68253;52.506;5.486;2023-03-21T09:27:44;18.40;58.70
78876;DHT22;68253;52.506;5.486;2023-03-21T09:30:12;18.40;58.70
78876;DHT22;68253;52.506;5.486;2023-03-21T09:32:38;18.50;58.70
78876;DHT22;68253;52.506;5.486;2023-03-21T09:35:05;18.50;58.60
78876;DHT22;68253;52.506;5.486;2023-03-21T09:37:32;18.60;58.70
78876;DHT22;68253;52.506;5.486;2023-03-21T09:39:58;18.60;58.70
78876;DHT22;68253;52.506;5.486;2023-03-21T09:42:43;18.70;58.60
78876;DHT22;68253;52.506;5.486;2023-03-21T09:45:19;18.80;58.60
78876;DHT22;68253;52.506;5.486;2023-03-21T09:47:47;18.80;58.70
78876;DHT22;68253;52.506;5.486;2023-03-21T09:50:28;18.90;58.60
78876;DHT22;68253;52.506;5.486;2023-03-21T09:53:18;19.00;58.60
78876;DHT22;68253;52.506;5.486;2023-03-21T09:55:46;19.00;58.70
78876;DHT22;68253;52.506;5.486;2023-03-21T09:58:31;19.10;58.70
78876;DHT22;68253;52.506;5.486;2023-03-21T10:01:09;19.10;58.70
78876;DHT22;68253;52.506;5.486;2023-03-21T10:03:47;19.20;58.70
78876;DHT22;68253;52.506;5.486;2023-03-21T10:06:15;19.20;58.70
78876;DHT22;68253;52.506;5.486;2023-03-21T10:08:45;19.20;58.70
78876;DHT22;68253;52.506;5.486;2023-03-21T10:11:27;19.30;58.70
78876;DHT22;68253;52.506;5.486;2023-03-21T10:14:02;19.40;58.70
78876;DHT22;68253;52.506;5.486;2023-03-21T10:16:39;19.40;58.70
78876;DHT22;68253;52.506;5.486;2023-03-21T10:19:13;19.40;58.70
78876;DHT22;68253;52.506;5.486;2023-03-21T10:21:42;19.50;58.70
78876;DHT22;68253;52.506;5.486;2023-03-21T10:24:22;19.50;58.70
78876;DHT22;68253;52.506;5.486;2023-03-21T10:26:50;19.60;58.70
78876;DHT22;68253;52.506;5.486;2023-03-21T10:29:20;19.60;58.70
78876;DHT22;68253;52.506;5.486;2023-03-21T10:31:47;19.70;58.80
78876;DHT22;68253;52.506;5.486;2023-03-21T10:34:19;19.70;58.70
78876;DHT22;68253;52.506;5.486;2023-03-21T10:36:51;19.70;58.80
78876;DHT22;68253;52.506;5.486;2023-03-21T10:39:24;19.70;58.80
78876;DHT22;68253;52.506;5.486;2023-03-21T10:41:52;19.80;58.80
78876;DHT22;68253;52.506;5.486;2023-03-21T10:44:19;19.80;58.80
78876;DHT22;68253;52.506;5.486;2023-03-21T10:46:57;19.90;58.80
78876;DHT22;68253;52.506;5.486;2023-03-21T10:49:24;19.90;58.80
78876;DHT22;68253;52.506;5.486;2023-03-21T10:51:54;19.90;58.80
78876;DHT22;68253;52.506;5.486;2023-03-21T10:54:27;19.90;58.90
78876;DHT22;68253;52.506;5.486;2023-03-21T10:57:00;20.00;58.90
78876;DHT22;68253;52.506;5.486;2023-03-21T10:59:43;20.00;58.90
78876;DHT22;68253;52.506;5.486;2023-03-21T11:02:19;20.00;58.90
78876;DHT22;68253;52.506;5.486;2023-03-21T11:04:49;20.00;58.90
78876;DHT22;68253;52.506;5.486;2023-03-21T11:07:18;20.00;58.90
78876;DHT22;68253;52.506;5.486;2023-03-21T11:09:52;20.00;59.00
78876;DHT22;68253;52.506;5.486;2023-03-21T11:12:33;20.00;58.90
78876;DHT22;68253;52.506;5.486;2023-03-21T11:17:57;20.10;58.90
78876;DHT22;68253;52.506;5.486;2023-03-21T11:20:24;20.00;59.00
78876;DHT22;68253;52.506;5.486;2023-03-21T11:22:53;20.10;59.00
78876;DHT22;68253;52.506;5.486;2023-03-21T11:25:32;20.10;59.00
78876;DHT22;68253;52.506;5.486;2023-03-21T11:28:05;20.10;58.90
78876;DHT22;68253;52.506;5.486;2023-03-21T11:30:32;20.10;59.00
78876;DHT22;68253;52.506;5.486;2023-03-21T11:33:01;20.00;59.00
78876;DHT22;68253;52.506;5.486;2023-03-21T11:35:34;20.10;58.90
78876;DHT22;68253;52.506;5.486;2023-03-21T11:38:00;20.00;59.00
78876;DHT22;68253;52.506;5.486;2023-03-21T11:40:34;20.00;58.90
78876;DHT22;68253;52.506;5.486;2023-03-21T11:43:25;20.10;58.90
78876;DHT22;68253;52.506;5.486;2023-03-21T11:46:08;20.00;58.80
78876;DHT22;68253;52.506;5.486;2023-03-21T11:48:45;20.00;58.90
78876;DHT22;68253;52.506;5.486;2023-03-21T11:54:47;20.00;58.90
78876;DHT22;68253;52.506;5.486;2023-03-21T12:02:51;20.00;58.90
78876;DHT22;68253;52.506;5.486;2023-03-21T12:05:33;20.00;58.80
78876;DHT22;68253;52.506;5.486;2023-03-21T12:08:25;20.10;58.90
78876;DHT22;68253;52.506;5.486;2023-03-21T12:16:20;20.00;59.00
78876;DHT22;68253;52.506;5.486;2023-03-21T12:24:55;20.10;58.90
78876;DHT22;68253;52.506;5.486;2023-03-21T12:30:26;20.00;58.90
78876;DHT22;68253;52.506;5.486;2023-03-21T12:36:03;20.00;58.90
78876;DHT22;68253;52.506;5.486;2023-03-21T12:41:25;20.00;58.90
78876;DHT22;68253;52.506;5.486;2023-03-21T12:44:31;20.00;58.90
78876;DHT22;68253;52.506;5.486;2023-03-21T12:47:00;20.00;58.90
78876;DHT22;68253;52.506;5.486;2023-03-21T12:49:50;20.00;58.90
78876;DHT22;68253;52.506;5.486;2023-03-21T12:52:28;20.00;58.80
78876;DHT22;68253;52.506;5.486;2023-03-21T12:57:34;20.00;58.90
78876;DHT22;68253;52.506;5.486;2023-03-21T13:02:42;20.00;58.80
78876;DHT22;68253;52.506;5.486;2023-03-21T13:05:22;20.00;58.80
78876;DHT22;68253;52.506;5.486;2023-03-21T13:08:06;20.00;58.70
78876;DHT22;68253;52.506;5.486;2023-03-21T13:10:34;20.00;58.70
78876;DHT22;68253;52.506;5.486;2023-03-21T13:15:56;20.00;58.80
78876;DHT22;68253;52.506;5.486;2023-03-21T13:18:34;20.00;58.70
78876;DHT22;68253;52.506;5.486;2023-03-21T13:21:16;20.00;58.70
78876;DHT22;68253;52.506;5.486;2023-03-21T13:24:14;20.10;58.70
78876;DHT22;68253;52.506;5.486;2023-03-21T13:26:47;20.10;58.70
78876;DHT22;68253;52.506;5.486;2023-03-21T13:31:54;20.10;58.70
78876;DHT22;68253;52.506;5.486;2023-03-21T13:34:22;20.00;58.70
78876;DHT22;68253;52.506;5.486;2023-03-21T13:36:50;20.00;58.70
78876;DHT22;68253;52.506;5.486;2023-03-21T13:39:27;20.00;58.70
78876;DHT22;68253;52.506;5.486;2023-03-21T13:41:54;20.00;58.70
78876;DHT22;68253;52.506;5.486;2023-03-21T13:44:24;20.00;58.70
78876;DHT22;68253;52.506;5.486;2023-03-21T13:47:05;20.00;58.70
78876;DHT22;68253;52.506;5.486;2023-03-21T13:53:10;20.00;58.70
78876;DHT22;68253;52.506;5.486;2023-03-21T13:55:45;20.00;58.70
78876;DHT22;68253;52.506;5.486;2023-03-21T14:01:09;20.00;58.70
78876;DHT22;68253;52.506;5.486;2023-03-21T14:03:37;19.90;58.70
78876;DHT22;68253;52.506;5.486;2023-03-21T14:06:05;19.90;58.70
78876;DHT22;68253;52.506;5.486;2023-03-21T14:08:34;19.90;58.70
78876;DHT22;68253;52.506;5.486;2023-03-21T14:11:04;19.90;58.70
78876;DHT22;68253;52.506;5.486;2023-03-21T14:13:31;19.90;58.70
78876;DHT22;68253;52.506;5.486;2023-03-21T14:16:25;19.90;58.70
78876;DHT22;68253;52.506;5.486;2023-03-21T14:19:02;19.90;58.70
78876;DHT22;68253;52.506;5.486;2023-03-21T14:21:32;19.90;58.70
78876;DHT22;68253;52.506;5.486;2023-03-21T14:24:31;19.90;58.70
78876;DHT22;68253;52.506;5.486;2023-03-21T14:26:53;19.80;58.70
78876;DHT22;68253;52.506;5.486;2023-03-21T14:29:29;19.70;58.80
78876;DHT22;68253;52.506;5.486;2023-03-21T14:31:56;19.80;58.70
78876;DHT22;68253;52.506;5.486;2023-03-21T14:34:30;19.80;58.70
78876;DHT22;68253;52.506;5.486;2023-03-21T14:36:57;19.80;58.70
78876;DHT22;68253;52.506;5.486;2023-03-21T14:39:28;19.80;58.70
78876;DHT22;68253;52.506;5.486;2023-03-21T14:42:07;19.80;58.70
78876;DHT22;68253;52.506;5.486;2023-03-21T14:44:37;19.80;58.70
78876;DHT22;68253;52.506;5.486;2023-03-21T14:47:15;19.80;58.60
78876;DHT22;68253;52.506;5.486;2023-03-21T14:49:42;19.70;58.60
78876;DHT22;68253;52.506;5.486;2023-03-21T14:52:28;19.70;58.60
78876;DHT22;68253;52.506;5.486;2023-03-21T14:54:55;19.70;58.60
78876;DHT22;68253;52.506;5.486;2023-03-21T14:57:24;19.70;58.60
78876;DHT22;68253;52.506;5.486;2023-03-21T14:59:54;19.70;58.60
78876;DHT22;68253;52.506;5.486;2023-03-21T15:02:27;19.70;58.50
78876;DHT22;68253;52.506;5.486;2023-03-21T15:05:04;19.70;58.50
78876;DHT22;68253;52.506;5.486;2023-03-21T15:07:33;19.70;58.50
78876;DHT22;68253;52.506;5.486;2023-03-21T15:10:03;19.70;58.50
78876;DHT22;68253;52.506;5.486;2023-03-21T15:12:30;19.70;58.50
78876;DHT22;68253;52.506;5.486;2023-03-21T15:14:58;19.70;58.50
78876;DHT22;68253;52.506;5.486;2023-03-21T15:17:25;19.70;58.50
78876;DHT22;68253;52.506;5.486;2023-03-21T15:19:51;19.70;58.50
78876;DHT22;68253;52.506;5.486;2023-03-21T15:22:29;19.70;58.50
78876;DHT22;68253;52.506;5.486;2023-03-21T15:25:00;19.70;58.40
78876;DHT22;68253;52.506;5.486;2023-03-21T15:27:30;19.80;58.40
78876;DHT22;68253;52.506;5.486;2023-03-21T15:29:57;19.80;58.40
78876;DHT22;68253;52.506;5.486;2023-03-21T15:32:25;19.80;58.40
78876;DHT22;68253;52.506;5.486;2023-03-21T15:34:54;19.80;58.40
78876;DHT22;68253;52.506;5.486;2023-03-21T15:37:24;19.80;58.40
78876;DHT22;68253;52.506;5.486;2023-03-21T15:39:51;19.80;58.40
78876;DHT22;68253;52.506;5.486;2023-03-21T15:42:33;19.80;58.40
78876;DHT22;68253;52.506;5.486;2023-03-21T15:45:07;19.90;58.40
78876;DHT22;68253;52.506;5.486;2023-03-21T15:47:41;19.90;58.40
78876;DHT22;68253;52.506;5.486;2023-03-21T15:50:28;19.90;58.40
78876;DHT22;68253;52.506;5.486;2023-03-21T15:52:59;19.90;58.40
78876;DHT22;68253;52.506;5.486;2023-03-21T15:55:27;19.90;58.40
78876;DHT22;68253;52.506;5.486;2023-03-21T15:57:59;19.90;58.40
78876;DHT22;68253;52.506;5.486;2023-03-21T16:00:37;19.80;58.50
78876;DHT22;68253;52.506;5.486;2023-03-21T16:03:17;19.90;58.50
78876;DHT22;68253;52.506;5.486;2023-03-21T16:08:44;19.90;58.50
78876;DHT22;68253;52.506;5.486;2023-03-21T16:11:28;19.90;58.50
78876;DHT22;68253;52.506;5.486;2023-03-21T16:13:55;19.90;58.40
78876;DHT22;68253;52.506;5.486;2023-03-21T16:16:23;19.90;58.50
78876;DHT22;68253;52.506;5.486;2023-03-21T16:18:51;19.90;58.50
78876;DHT22;68253;52.506;5.486;2023-03-21T16:21:19;19.90;58.50
78876;DHT22;68253;52.506;5.486;2023-03-21T16:23:46;19.90;58.50
78876;DHT22;68253;52.506;5.486;2023-03-21T16:26:18;20.00;58.50
78876;DHT22;68253;52.506;5.486;2023-03-21T16:28:46;20.00;58.50
78876;DHT22;68253;52.506;5.486;2023-03-21T16:31:22;20.00;58.50
78876;DHT22;68253;52.506;5.486;2023-03-21T16:33:49;20.00;58.50
78876;DHT22;68253;52.506;5.486;2023-03-21T16:36:30;20.00;58.50
78876;DHT22;68253;52.506;5.486;2023-03-21T16:38:57;20.00;58.50
78876;DHT22;68253;52.506;5.486;2023-03-21T16:41:25;20.00;58.50
78876;DHT22;68253;52.506;5.486;2023-03-21T16:43:52;20.00;58.60
78876;DHT22;68253;52.506;5.486;2023-03-21T16:46:21;20.00;58.50
78876;DHT22;68253;52.506;5.486;2023-03-21T16:48:49;20.00;58.60
78876;DHT22;68253;52.506;5.486;2023-03-21T16:51:21;20.00;58.60
78876;DHT22;68253;52.506;5.486;2023-03-21T16:53:48;20.00;58.70
78876;DHT22;68253;52.506;5.486;2023-03-21T16:56:18;20.00;58.70
78876;DHT22;68253;52.506;5.486;2023-03-21T16:58:45;20.10;58.90
78876;DHT22;68253;52.506;5.486;2023-03-21T17:01:16;20.10;59.00
78876;DHT22;68253;52.506;5.486;2023-03-21T17:03:44;20.10;59.10
78876;DHT22;68253;52.506;5.486;2023-03-21T17:06:22;20.20;59.10
78876;DHT22;68253;52.506;5.486;2023-03-21T17:08:56;20.20;59.30
78876;DHT22;68253;52.506;5.486;2023-03-21T17:11:24;20.20;59.30